Terminal Aerodrome Forecast
Issued by NWS

Home | Current Version | Previous Version | Text Only | Print | Product List | Glossary On
Versions: 1 2 3 4 5 6 7 8 9 10 11 12 13 14 15
000
FTAK31 PAJN 261152
TAFAJN
TAF
PAJN 261152Z 2612/2712 10005KT P6SM -RA BKN040 OVC060
     FM262000 14005KT 5SM -RA BR SCT025 OVC035
     FM270400 VRB05KT P6SM -RA OVC025
     FM271000 VRB05KT P6SM VCSH SCT025 OVC035=

USA.gov is the U.S. government's official web portal to all federal, state and local government web resources and services.